createdAt,value
2019-01-18T00:01:24.940Z,22.4
2019-01-18T00:06:30.325Z,22.3
2019-01-18T00:11:35.504Z,22.3
2019-01-18T00:16:40.467Z,22.3
2019-01-18T00:21:45.600Z,22.3
2019-01-18T00:26:50.576Z,22.3
2019-01-18T00:31:54.332Z,22.3
2019-01-18T00:37:00.352Z,22.3
2019-01-18T00:42:05.980Z,22.3
2019-01-18T00:47:12.316Z,22.3
2019-01-18T00:52:18.583Z,22.3
2019-01-18T00:57:24.354Z,22.2
2019-01-18T01:02:30.173Z,22.3
2019-01-18T01:07:35.687Z,22.2
2019-01-18T01:12:40.944Z,22.2
2019-01-18T01:17:46.614Z,22.2
2019-01-18T01:22:51.788Z,22.2
2019-01-18T01:27:57.920Z,22.2
2019-01-18T01:33:03.056Z,22.2
2019-01-18T01:38:08.755Z,22.2
2019-01-18T01:43:14.176Z,22.2
2019-01-18T01:48:20.345Z,22.2
2019-01-18T01:53:26.287Z,22.2
2019-01-18T01:58:31.314Z,22.1
2019-01-18T02:03:37.632Z,22.1
2019-01-18T02:08:43.592Z,22.1
2019-01-18T02:13:47.965Z,22.1
2019-01-18T02:18:53.440Z,22.2
2019-01-18T02:23:59.092Z,22.1
2019-01-18T02:29:04.670Z,22.1
2019-01-18T02:34:10.232Z,22.1
2019-01-18T02:39:15.364Z,22.1
2019-01-18T02:44:21.066Z,22.1
2019-01-18T02:49:26.336Z,22.1
2019-01-18T02:54:32.666Z,22.1
2019-01-18T02:59:38.736Z,22.1
2019-01-18T03:04:44.970Z,22.1
2019-01-18T03:09:50.627Z,22.1
2019-01-18T03:14:56.069Z,22
2019-01-18T03:20:01.822Z,22
2019-01-18T03:25:06.896Z,22
2019-01-18T03:30:22.413Z,22.1
2019-01-18T03:35:17.806Z,22
2019-01-18T03:40:23.940Z,22
2019-01-18T03:45:29.763Z,22
2019-01-18T03:50:29.727Z,22
2019-01-18T03:55:34.897Z,22
2019-01-18T04:00:38.736Z,22
2019-01-18T04:05:43.985Z,22
2019-01-18T04:10:49.763Z,22
2019-01-18T04:15:55.073Z,22
2019-01-18T04:20:59.972Z,22
2019-01-18T04:26:05.929Z,22
2019-01-18T04:31:10.996Z,22
2019-01-18T04:36:16.524Z,22
2019-01-18T04:41:22.132Z,22
2019-01-18T04:46:26.401Z,22
2019-01-18T04:51:31.569Z,22
2019-01-18T04:56:36.981Z,22.2
2019-01-18T05:01:41.992Z,22.3
2019-01-18T05:06:47.858Z,22.4
2019-01-18T05:11:53.627Z,22.5
2019-01-18T05:16:58.909Z,22.5
2019-01-18T05:22:04.552Z,22.5
2019-01-18T05:27:10.285Z,22.7
2019-01-18T05:37:20.209Z,22.9
2019-01-18T05:42:26.025Z,23
2019-01-18T05:47:31.995Z,23.1
2019-01-18T05:52:37.614Z,23.2
2019-01-18T05:57:43.838Z,23.2
2019-01-18T06:02:48.728Z,23.3
2019-01-18T06:07:54.375Z,23.3
2019-01-18T06:13:00.176Z,23.2
2019-01-18T06:18:06.317Z,23.3
2019-01-18T06:23:11.608Z,23.2
2019-01-18T06:28:17.050Z,23.3
2019-01-18T06:33:22.873Z,23.2
2019-01-18T06:38:28.497Z,23.2
2019-01-18T06:43:34.372Z,23.1
2019-01-18T06:48:39.684Z,23.2
2019-01-18T06:53:45.199Z,23.1
2019-01-18T06:58:51.023Z,23.2
2019-01-18T07:03:56.059Z,23.2
2019-01-18T07:08:59.890Z,23.2
2019-01-18T07:14:05.453Z,23.2
2019-01-18T07:19:10.963Z,23.2
2019-01-18T07:24:16.479Z,23.2
2019-01-18T07:29:22.411Z,23.2
2019-01-18T07:34:27.620Z,23.2
2019-01-18T07:39:33.631Z,23.2
2019-01-18T07:44:39.606Z,23.1
2019-01-18T07:49:45.515Z,23.2
2019-01-18T07:54:50.662Z,23.2
2019-01-18T07:59:55.710Z,23.1
2019-01-18T08:05:01.297Z,23.1
2019-01-18T08:10:07.483Z,23.1
2019-01-18T08:15:13.591Z,23.1
2019-01-18T08:20:18.754Z,23.1
2019-01-18T08:25:23.891Z,23.1
2019-01-18T08:30:29.869Z,23.1
2019-01-18T08:40:39.972Z,23
2019-01-18T08:45:45.179Z,22.9
2019-01-18T08:50:50.675Z,22.9
2019-01-18T08:55:56.256Z,22.8
2019-01-18T09:01:01.396Z,22.8
2019-01-18T09:06:06.940Z,22.8
2019-01-18T09:11:12.615Z,22.9
2019-01-18T09:16:17.788Z,22.9
2019-01-18T09:21:23.013Z,22.9
2019-01-18T09:26:28.691Z,22.9
2019-01-18T09:31:34.310Z,22.9
2019-01-18T09:36:39.904Z,22.9
2019-01-18T09:41:45.968Z,23
2019-01-18T09:46:51.044Z,23
2019-01-18T09:51:57.050Z,23
2019-01-18T09:57:02.476Z,23
2019-01-18T10:02:07.753Z,23
2019-01-18T10:07:14.041Z,23
2019-01-18T10:12:19.888Z,23
2019-01-18T10:17:25.048Z,23
2019-01-18T10:22:30.747Z,23
2019-01-18T10:27:36.085Z,23
2019-01-18T10:32:41.040Z,23
2019-01-18T10:37:45.943Z,23
2019-01-18T10:42:51.192Z,23
2019-01-18T10:47:56.434Z,22.8
2019-01-18T10:58:07.018Z,21.5
2019-01-18T11:03:13.272Z,22.4
2019-01-18T11:13:22.113Z,22.9
2019-01-18T11:18:27.156Z,23
2019-01-18T11:23:33.245Z,23
2019-01-18T11:28:38.918Z,23.1
2019-01-18T11:33:44.608Z,23.1
2019-01-18T11:38:50.313Z,23.1
2019-01-18T11:43:55.479Z,23.1
2019-01-18T11:54:05.391Z,23.1
2019-01-18T11:59:10.597Z,23.1
2019-01-18T12:04:16.604Z,23.1
2019-01-18T12:09:21.667Z,23.1
2019-01-18T12:14:27.159Z,23.1
2019-01-18T12:19:32.783Z,23.1
2019-01-18T12:24:38.186Z,23.1
2019-01-18T12:29:44.331Z,23.1
2019-01-18T12:34:49.650Z,23.1
2019-01-18T12:39:55.113Z,23.1
2019-01-18T12:45:02.261Z,23
2019-01-18T12:50:08.840Z,23.1
2019-01-18T12:55:14.958Z,23.1
2019-01-18T13:00:20.807Z,23
2019-01-18T13:05:27.159Z,23.1
2019-01-18T13:10:32.338Z,23.1
2019-01-18T13:15:39.119Z,23.1
2019-01-18T13:20:44.989Z,23
2019-01-18T13:25:50.717Z,23
2019-01-18T13:30:55.884Z,23
2019-01-18T13:36:02.015Z,23
2019-01-18T13:41:07.527Z,23
2019-01-18T13:46:13.024Z,23
2019-01-18T13:51:16.634Z,22.9
2019-01-18T13:56:21.926Z,22.9
2019-01-18T14:01:27.922Z,22.9
2019-01-18T14:06:33.627Z,22.8
2019-01-18T14:11:38.923Z,22.9
2019-01-18T14:16:44.899Z,22.8
2019-01-18T14:21:50.559Z,22.9
2019-01-18T14:26:56.176Z,22.9
2019-01-18T14:32:01.376Z,22.9
2019-01-18T14:37:06.503Z,22.9
2019-01-18T14:42:06.802Z,22.9
2019-01-18T14:47:11.174Z,22.9
2019-01-18T14:52:17.402Z,22.9
2019-01-18T14:57:24.942Z,23
2019-01-18T15:02:29.971Z,23
2019-01-18T15:07:35.227Z,23
2019-01-18T15:12:40.189Z,23
2019-01-18T15:17:45.206Z,22.9
2019-01-18T15:22:50.808Z,22.9
2019-01-18T15:27:56.364Z,22.9
2019-01-18T15:33:08.790Z,22.8
2019-01-18T15:38:04.633Z,22.8
2019-01-18T15:43:09.697Z,22.8
2019-01-18T15:48:14.945Z,22.8
2019-01-18T15:53:19.971Z,22.7
2019-01-18T15:58:25.378Z,22.7
2019-01-18T16:03:30.439Z,22.7
2019-01-18T16:08:36.426Z,22.8
2019-01-18T16:13:42.336Z,22.8
2019-01-18T16:18:47.511Z,22.9
2019-01-18T16:23:52.889Z,22.9
2019-01-18T16:28:58.075Z,22.9
2019-01-18T16:34:03.125Z,22.9
2019-01-18T16:39:08.764Z,22.9
2019-01-18T16:44:14.555Z,23
2019-01-18T16:49:20.451Z,22.9
2019-01-18T16:54:26.300Z,22.9
2019-01-18T16:59:32.899Z,22.9
2019-01-18T17:04:38.961Z,22.9
2019-01-18T17:09:45.052Z,22.9
2019-01-18T17:14:50.581Z,22.9
2019-01-18T17:19:56.014Z,22.9
2019-01-18T17:25:01.436Z,22.9
2019-01-18T17:30:07.491Z,23
2019-01-18T17:35:19.347Z,23
2019-01-18T17:40:25.607Z,23
2019-01-18T17:45:31.864Z,22.9
2019-01-18T17:50:37.957Z,23
2019-01-18T17:55:44.203Z,22.9
2019-01-18T18:00:51.081Z,22.9
2019-01-18T18:05:57.072Z,22.9
2019-01-18T18:11:05.729Z,22.8
2019-01-18T18:16:12.401Z,22.7
2019-01-18T18:21:19.308Z,15.7
2019-01-18T18:26:26.102Z,11.8
2019-01-18T18:31:32.166Z,16.5
2019-01-18T18:36:36.966Z,19.4
2019-01-18T18:41:34.311Z,21.1
2019-01-18T18:46:40.467Z,22.1
2019-01-18T18:51:47.886Z,22.6
2019-01-18T18:56:54.151Z,22.9
2019-01-18T19:02:00.132Z,22.9
2019-01-18T19:07:06.477Z,22.9
2019-01-18T19:12:13.591Z,22.9
2019-01-18T19:17:20.322Z,23
2019-01-18T19:22:26.621Z,23
2019-01-18T19:27:32.897Z,23
2019-01-18T19:32:39.776Z,23
2019-01-18T19:37:46.032Z,23.1
2019-01-18T19:42:52.595Z,23.1
2019-01-18T19:47:58.997Z,23.2
2019-01-18T19:53:07.182Z,23.1
2019-01-18T19:58:13.218Z,23.2
2019-01-18T20:08:23.746Z,23.2
2019-01-18T20:18:34.525Z,23.3
2019-01-18T20:23:41.089Z,23.3
2019-01-18T20:28:47.571Z,23.2
2019-01-18T20:33:53.828Z,23.3
2019-01-18T20:39:00.356Z,23.3
2019-01-18T20:44:07.080Z,23.3
2019-01-18T20:49:13.291Z,23.4
2019-01-18T20:54:20.135Z,23.4
2019-01-18T20:59:26.423Z,23.4
2019-01-18T21:04:35.270Z,23.4
2019-01-18T21:09:40.731Z,23.3
2019-01-18T21:14:46.441Z,23.4
2019-01-18T21:19:52.238Z,23.4
2019-01-18T21:24:57.831Z,23.4
2019-01-18T21:30:03.662Z,23.5
2019-01-18T21:47:10.857Z,23.4
2019-01-18T21:52:16.867Z,23.4
2019-01-18T21:57:22.142Z,23.4
2019-01-18T22:02:28.151Z,23.4
2019-01-18T22:07:32.725Z,23.4
2019-01-18T22:12:41.449Z,23.5
2019-01-18T22:17:47.009Z,23.5
2019-01-18T22:22:52.841Z,23.3
2019-01-18T22:27:58.361Z,23.1
2019-01-18T22:33:04.420Z,23
2019-01-18T22:38:09.771Z,23
2019-01-18T22:43:15.017Z,22.9
2019-01-18T22:48:20.676Z,22.9
2019-01-18T22:53:26.495Z,22.9
2019-01-18T22:58:34.012Z,22.8
2019-01-18T23:03:39.163Z,22.8
2019-01-18T23:08:44.199Z,22.7
2019-01-18T23:13:49.648Z,22.9
2019-01-18T23:18:54.971Z,22.8
2019-01-18T23:29:04.802Z,22.8
2019-01-18T23:34:10.155Z,22.7
2019-01-18T23:39:15.814Z,22.7
2019-01-18T23:44:21.327Z,22.7
2019-01-18T23:49:27.240Z,22.6
2019-01-18T23:54:32.855Z,22.6
